Time;durP1;ratioP1;P1;durP2;ratioP2;P2;SDS_P1;SDS_P2;PMS_P1;PMS_P2;Temp;Humidity;BMP_temperature;BMP_pressure;BME280_temperature;BME280_humidity;BME280_pressure;Samples;Min_cycle;Max_cycle;Signal;HPM_P1;HPM_P2
2023/02/15 00:01:13;;;;;;;16.50;10.25;;;;;;;;;;5115564;28;20545;-44
2023/02/15 00:03:39;;;;;;;17.42;10.75;;;;;;;;;;5115535;28;20051;-45
2023/02/15 00:06:05;;;;;;;16.17;10.70;;;;;;;;;;5115367;28;20358;-41
2023/02/15 00:08:31;;;;;;;14.85;10.27;;;;;;;;;;5115280;27;20023;-42
2023/02/15 00:11:39;;;;;;;15.90;10.25;;;;;;;;;;5114614;28;20028;-44
2023/02/15 00:14:11;;;;;;;15.88;10.02;;;;;;;;;;5114866;28;20032;-42
2023/02/15 00:16:38;;;;;;;17.17;10.00;;;;;;;;;;5114955;28;20385;-42
2023/02/15 00:19:04;;;;;;;16.45;9.07;;;;;;;;;;5114874;28;20047;-44
2023/02/15 00:21:31;;;;;;;17.63;9.63;;;;;;;;;;5114694;28;20395;-45
2023/02/15 00:23:58;;;;;;;18.30;10.13;;;;;;;;;;5114614;28;20489;-40
2023/02/15 00:26:24;;;;;;;16.33;10.40;;;;;;;;;;5114332;28;20451;-44
2023/02/15 00:28:51;;;;;;;18.65;10.25;;;;;;;;;;5114818;28;20054;-45
2023/02/15 00:31:17;;;;;;;15.48;9.98;;;;;;;;;;5114735;28;20046;-45
2023/02/15 00:33:43;;;;;;;24.20;11.45;;;;;;;;;;5113368;27;20035;-45
2023/02/15 00:36:10;;;;;;;18.40;9.90;;;;;;;;;;5114525;28;20036;-44
2023/02/15 00:38:36;;;;;;;13.73;9.38;;;;;;;;;;5115518;28;20308;-45
2023/02/15 00:41:03;;;;;;;15.27;9.90;;;;;;;;;;5114276;28;20023;-41
2023/02/15 00:43:30;;;;;;;15.68;10.00;;;;;;;;;;5114509;28;20024;-44
2023/02/15 00:45:56;;;;;;;16.75;10.27;;;;;;;;;;5114630;28;20497;-45
2023/02/15 00:48:23;;;;;;;15.75;9.90;;;;;;;;;;5114763;28;20048;-45
2023/02/15 00:50:59;;;;;;;17.40;10.13;;;;;;;;;;5113338;28;20027;-41
2023/02/15 00:53:26;;;;;;;17.45;9.48;;;;;;;;;;5115040;28;20074;-43
2023/02/15 00:55:53;;;;;;;13.48;8.73;;;;;;;;;;5113084;28;20040;-45
2023/02/15 00:58:19;;;;;;;14.57;9.45;;;;;;;;;;5114261;28;20028;-44
2023/02/15 01:00:46;;;;;;;16.67;10.23;;;;;;;;;;5112822;28;20050;-43
2023/02/15 01:03:13;;;;;;;14.73;9.60;;;;;;;;;;5114460;28;20035;-45
2023/02/15 01:05:39;;;;;;;13.27;9.30;;;;;;;;;;5114111;28;20024;-45
2023/02/15 01:08:05;;;;;;;16.35;9.20;;;;;;;;;;5114029;27;20504;-45
2023/02/15 01:10:31;;;;;;;15.23;8.90;;;;;;;;;;5114271;28;20138;-45
2023/02/15 01:12:57;;;;;;;14.40;8.55;;;;;;;;;;5114363;28;20058;-45
2023/02/15 01:15:23;;;;;;;13.10;8.10;;;;;;;;;;5113926;28;20031;-45
2023/02/15 01:17:53;;;;;;;13.70;8.40;;;;;;;;;;5113840;28;20416;-44
2023/02/15 01:20:24;;;;;;;14.75;9.10;;;;;;;;;;5113642;28;20019;-45
2023/02/15 01:22:50;;;;;;;14.65;8.48;;;;;;;;;;5113962;28;20027;-43
2023/02/15 01:25:20;;;;;;;12.98;8.55;;;;;;;;;;5114064;28;20023;-42
2023/02/15 01:27:47;;;;;;;13.10;8.45;;;;;;;;;;5112766;28;20384;-43
2023/02/15 01:30:13;;;;;;;15.82;9.05;;;;;;;;;;5112321;28;20050;-45
2023/02/15 01:32:39;;;;;;;14.75;8.88;;;;;;;;;;5113672;28;20027;-45
2023/02/15 01:35:06;;;;;;;12.32;8.30;;;;;;;;;;5112481;28;20030;-45
2023/02/15 01:37:33;;;;;;;13.60;8.70;;;;;;;;;;5113572;28;20031;-45
2023/02/15 01:39:59;;;;;;;13.05;8.30;;;;;;;;;;5113814;27;20073;-43
2023/02/15 01:42:26;;;;;;;14.07;8.65;;;;;;;;;;5112144;28;20055;-44
2023/02/15 01:44:57;;;;;;;14.35;8.70;;;;;;;;;;5112431;28;20032;-46
2023/02/15 01:47:29;;;;;;;14.95;8.30;;;;;;;;;;5113540;28;20103;-44
2023/02/15 01:50:17;;;;;;;12.18;7.72;;;;;;;;;;5112857;28;20078;-42
2023/02/15 01:52:49;;;;;;;14.55;8.60;;;;;;;;;;5113633;28;20107;-45
2023/02/15 01:55:16;;;;;;;13.68;7.70;;;;;;;;;;5112843;28;20053;-42
2023/02/15 01:57:42;;;;;;;13.52;8.63;;;;;;;;;;5113383;27;20032;-45
2023/02/15 02:00:08;;;;;;;15.48;8.80;;;;;;;;;;5113561;27;20032;-45
2023/02/15 02:02:35;;;;;;;12.25;7.38;;;;;;;;;;5111544;28;20030;-45
2023/02/15 02:05:06;;;;;;;13.63;8.43;;;;;;;;;;5112627;28;20023;-45
2023/02/15 02:07:33;;;;;;;14.23;8.75;;;;;;;;;;5112913;28;20015;-44
2023/02/15 02:10:00;;;;;;;12.60;7.90;;;;;;;;;;5113286;28;20426;-46
2023/02/15 02:12:26;;;;;;;14.80;8.43;;;;;;;;;;5113387;28;20023;-43
2023/02/15 02:14:53;;;;;;;14.52;7.97;;;;;;;;;;5113081;28;20098;-44
2023/02/15 02:17:28;;;;;;;11.57;7.55;;;;;;;;;;5111863;28;20470;-45
2023/02/15 02:20:06;;;;;;;12.70;8.13;;;;;;;;;;5111781;28;20296;-45
2023/02/15 02:22:51;;;;;;;13.25;8.05;;;;;;;;;;5112510;28;20020;-43
2023/02/15 02:25:17;;;;;;;11.95;8.18;;;;;;;;;;5112554;28;20039;-45
2023/02/15 02:27:58;;;;;;;13.10;7.70;;;;;;;;;;5112976;28;20024;-45
2023/02/15 02:30:45;;;;;;;13.18;8.23;;;;;;;;;;5111662;27;20020;-44
2023/02/15 02:33:29;;;;;;;13.85;8.00;;;;;;;;;;5112480;28;20533;-44
2023/02/15 02:36:16;;;;;;;12.93;7.57;;;;;;;;;;5111931;28;20087;-45
2023/02/15 02:38:42;;;;;;;11.77;7.57;;;;;;;;;;5112457;28;20474;-45
2023/02/15 02:41:13;;;;;;;12.85;7.88;;;;;;;;;;5111922;28;20034;-45
2023/02/15 02:43:49;;;;;;;12.65;7.70;;;;;;;;;;5112600;28;20015;-45
2023/02/15 02:46:25;;;;;;;14.35;7.50;;;;;;;;;;5112240;28;20032;-44
2023/02/15 02:48:51;;;;;;;11.25;7.45;;;;;;;;;;5111923;28;20088;-45
2023/02/15 02:51:21;;;;;;;12.52;8.23;;;;;;;;;;5111788;28;20493;-45
2023/02/15 02:53:48;;;;;;;13.23;7.88;;;;;;;;;;5111716;28;20035;-44
2023/02/15 02:56:21;;;;;;;14.85;8.10;;;;;;;;;;5111795;28;20493;-45
2023/02/15 02:59:06;;;;;;;13.35;8.15;;;;;;;;;;5111730;28;20035;-44
2023/02/15 03:01:35;;;;;;;12.50;8.05;;;;;;;;;;5110738;28;20035;-44
2023/02/15 03:04:06;;;;;;;11.43;7.25;;;;;;;;;;5112000;28;20179;-45
2023/02/15 03:06:41;;;;;;;12.00;7.50;;;;;;;;;;5111459;28;20039;-44
2023/02/15 03:09:14;;;;;;;12.55;7.57;;;;;;;;;;5111676;28;20093;-45
2023/02/15 03:11:41;;;;;;;11.52;7.18;;;;;;;;;;5112411;28;20103;-45
2023/02/15 03:14:07;;;;;;;11.75;7.45;;;;;;;;;;5111894;28;20035;-45
2023/02/15 03:16:33;;;;;;;11.00;7.07;;;;;;;;;;5111441;28;20028;-45
2023/02/15 03:19:03;;;;;;;14.48;7.95;;;;;;;;;;5111493;28;20110;-46
2023/02/15 03:21:49;;;;;;;11.63;7.28;;;;;;;;;;5111503;28;20415;-44
2023/02/15 03:24:20;;;;;;;13.23;7.43;;;;;;;;;;5111695;28;20058;-45
2023/02/15 03:26:48;;;;;;;13.07;7.50;;;;;;;;;;5111612;28;20152;-45
2023/02/15 03:29:15;;;;;;;11.80;7.05;;;;;;;;;;5114723;28;20032;-46
2023/02/15 03:31:43;;;;;;;12.38;7.07;;;;;;;;;;5115594;28;20020;-44
2023/02/15 03:34:11;;;;;;;12.75;7.32;;;;;;;;;;5116132;28;20027;-45
2023/02/15 03:36:37;;;;;;;12.85;7.28;;;;;;;;;;5115983;28;20190;-44
2023/02/15 03:39:22;;;;;;;10.63;6.72;;;;;;;;;;5116205;28;20105;-41
2023/02/15 03:41:57;;;;;;;11.05;6.90;;;;;;;;;;5115794;28;20512;-44
2023/02/15 03:44:31;;;;;;;10.50;6.78;;;;;;;;;;5115873;28;20393;-43
2023/02/15 03:47:01;;;;;;;11.65;7.30;;;;;;;;;;5115025;27;20148;-44
2023/02/15 03:49:35;;;;;;;13.05;6.88;;;;;;;;;;5115394;28;20030;-44
2023/02/15 03:52:03;;;;;;;11.65;6.90;;;;;;;;;;5115377;28;20028;-44
2023/02/15 03:54:42;;;;;;;11.60;6.88;;;;;;;;;;5115193;28;20020;-44
2023/02/15 04:03:05;;;;;;;12.18;6.65;;;;;;;;;;5115391;28;20442;-44
2023/02/15 04:05:31;;;;;;;12.85;7.30;;;;;;;;;;5113656;28;20077;-43
2023/02/15 04:07:57;;;;;;;12.77;6.35;;;;;;;;;;5114973;28;20462;-43
2023/02/15 04:13:08;;;;;;;13.52;7.40;;;;;;;;;;5115082;28;20034;-44
2023/02/15 04:18:18;;;;;;;;;;;;;;;;;;5115281;28;20038;-40
2023/02/15 04:26:14;;;;;;;;;;;;;;;;;;5115405;28;20035;-44
2023/02/15 04:28:40;;;;;;;10.25;6.50;;;;;;;;;;5115123;28;19904;-43
2023/02/15 04:31:06;;;;;;;11.32;6.50;;;;;;;;;;5115102;28;20380;-43
2023/02/15 04:33:32;;;;;;;10.30;6.40;;;;;;;;;;5114818;28;20050;-43
2023/02/15 04:35:58;;;;;;;10.82;6.78;;;;;;;;;;5114412;28;20043;-43
2023/02/15 04:38:24;;;;;;;11.65;7.13;;;;;;;;;;5113218;28;20236;-43
2023/02/15 04:40:51;;;;;;;10.07;6.80;;;;;;;;;;5113922;28;20100;-44
2023/02/15 04:43:18;;;;;;;9.98;6.57;;;;;;;;;;5114679;27;20032;-40
2023/02/15 04:45:48;;;;;;;11.70;7.32;;;;;;;;;;5113986;28;20398;-39
2023/02/15 04:48:15;;;;;;;9.82;6.40;;;;;;;;;;5113050;28;20306;-44
2023/02/15 04:50:40;;;;;;;10.55;6.72;;;;;;;;;;5114764;28;20016;-42
2023/02/15 04:53:06;;;;;;;10.02;6.28;;;;;;;;;;5114612;28;20388;-44
2023/02/15 04:55:32;;;;;;;10.50;6.88;;;;;;;;;;5114518;28;20122;-43
2023/02/15 04:57:58;;;;;;;12.13;7.05;;;;;;;;;;5113930;28;20027;-41
2023/02/15 05:00:25;;;;;;;9.40;6.47;;;;;;;;;;5114360;28;20045;-42
2023/02/15 05:02:51;;;;;;;12.05;6.72;;;;;;;;;;5114184;28;20046;-43
2023/02/15 05:05:17;;;;;;;12.80;6.65;;;;;;;;;;5113923;28;20470;-43
2023/02/15 05:07:43;;;;;;;10.40;6.55;;;;;;;;;;5113618;28;20111;-43
2023/02/15 05:10:09;;;;;;;11.43;6.22;;;;;;;;;;5114009;28;20019;-42
2023/02/15 05:12:35;;;;;;;10.57;6.72;;;;;;;;;;5114074;28;20097;-41
2023/02/15 05:15:01;;;;;;;12.63;6.47;;;;;;;;;;5114068;28;20385;-42
2023/02/15 05:17:27;;;;;;;9.70;6.05;;;;;;;;;;5114026;28;20020;-42
2023/02/15 05:19:53;;;;;;;11.60;6.78;;;;;;;;;;5114278;28;20053;-43
2023/02/15 05:22:19;;;;;;;11.55;6.63;;;;;;;;;;5112976;28;20107;-43
2023/02/15 05:30:15;;;;;;;10.57;6.43;;;;;;;;;;5113702;28;20512;-44
2023/02/15 05:32:41;;;;;;;9.20;5.75;;;;;;;;;;5113411;28;20400;-42
2023/02/15 05:35:07;;;;;;;9.43;6.45;;;;;;;;;;5112473;28;20019;-44
2023/02/15 05:37:33;;;;;;;10.27;6.68;;;;;;;;;;5112167;28;20050;-44
2023/02/15 05:40:00;;;;;;;12.98;7.03;;;;;;;;;;5112667;28;20019;-42
2023/02/15 05:42:26;;;;;;;10.23;6.70;;;;;;;;;;5113302;28;20059;-38
2023/02/15 05:44:51;;;;;;;9.93;6.68;;;;;;;;;;5113973;28;20050;-44
2023/02/15 05:47:17;;;;;;;14.52;9.35;;;;;;;;;;5112533;28;20530;-42
2023/02/15 05:49:43;;;;;;;16.75;9.00;;;;;;;;;;5112968;27;20016;-42
2023/02/15 05:52:11;;;;;;;16.67;8.98;;;;;;;;;;5112306;28;20462;-42
2023/02/15 05:54:37;;;;;;;14.50;9.02;;;;;;;;;;5113305;28;20019;-42
2023/02/15 05:57:03;;;;;;;15.88;9.45;;;;;;;;;;5111426;28;20031;-42
2023/02/15 05:59:29;;;;;;;14.57;8.60;;;;;;;;;;5112610;28;20031;-41
2023/02/15 06:01:55;;;;;;;12.93;8.38;;;;;;;;;;5112363;28;20130;-42
2023/02/15 06:04:21;;;;;;;19.17;8.60;;;;;;;;;;5113098;28;20031;-42
2023/02/15 06:06:47;;;;;;;14.20;8.55;;;;;;;;;;5112676;28;20038;-42
2023/02/15 06:09:14;;;;;;;13.55;8.40;;;;;;;;;;5113185;28;20079;-42
2023/02/15 06:11:41;;;;;;;13.13;7.78;;;;;;;;;;5112843;28;20562;-42
2023/02/15 06:14:07;;;;;;;14.15;8.75;;;;;;;;;;5112435;28;20023;-38
2023/02/15 06:16:33;;;;;;;13.10;7.93;;;;;;;;;;5112430;28;20042;-41
2023/02/15 06:18:59;;;;;;;14.63;8.00;;;;;;;;;;5113121;28;20427;-42
2023/02/15 06:21:25;;;;;;;12.57;7.55;;;;;;;;;;5112568;28;20054;-39
2023/02/15 06:23:51;;;;;;;13.43;8.02;;;;;;;;;;5111264;28;20024;-39
2023/02/15 06:26:17;;;;;;;14.27;8.05;;;;;;;;;;5111854;28;20023;-38
2023/02/15 06:28:43;;;;;;;11.38;7.32;;;;;;;;;;5112217;28;20023;-36
2023/02/15 06:31:09;;;;;;;11.00;7.47;;;;;;;;;;5112672;28;20068;-42
2023/02/15 06:33:36;;;;;;;12.88;7.70;;;;;;;;;;5111337;28;20049;-36
2023/02/15 06:36:03;;;;;;;13.13;7.18;;;;;;;;;;5112539;28;20027;-35
2023/02/15 06:38:29;;;;;;;11.10;7.20;;;;;;;;;;5112752;28;20031;-33
2023/02/15 06:40:55;;;;;;;12.68;7.75;;;;;;;;;;5112107;28;20453;-33
2023/02/15 06:43:21;;;;;;;12.30;7.65;;;;;;;;;;5112320;28;20023;-32
2023/02/15 06:45:47;;;;;;;12.15;7.25;;;;;;;;;;5112142;28;20028;-42
2023/02/15 06:48:13;;;;;;;12.80;7.30;;;;;;;;;;5112053;28;20381;-42
2023/02/15 06:50:39;;;;;;;12.80;7.63;;;;;;;;;;5112111;28;20049;-40
2023/02/15 06:53:05;;;;;;;9.43;6.25;;;;;;;;;;5111891;28;20108;-34
2023/02/15 06:55:31;;;;;;;13.65;8.15;;;;;;;;;;5111867;28;20063;-34
2023/02/15 06:57:57;;;;;;;13.50;7.00;;;;;;;;;;5111637;28;20447;-35
2023/02/15 07:00:23;;;;;;;12.88;7.28;;;;;;;;;;5111680;28;20121;-42
2023/02/15 07:02:57;;;;;;;11.32;6.85;;;;;;;;;;5112277;28;20107;-42
2023/02/15 07:05:23;;;;;;;12.10;6.53;;;;;;;;;;5112284;28;20114;-41
2023/02/15 07:07:49;;;;;;;11.57;7.13;;;;;;;;;;5111646;28;20111;-39
2023/02/15 07:10:15;;;;;;;12.73;7.10;;;;;;;;;;5111631;28;20069;-40
2023/02/15 07:12:42;;;;;;;13.77;7.18;;;;;;;;;;5111953;28;20032;-41
2023/02/15 07:15:08;;;;;;;11.95;6.60;;;;;;;;;;5112250;28;20019;-41
2023/02/15 07:17:34;;;;;;;9.02;6.38;;;;;;;;;;5111855;28;20546;-40
2023/02/15 07:20:01;;;;;;;11.07;6.75;;;;;;;;;;5112231;28;20032;-42
2023/02/15 07:22:27;;;;;;;10.70;6.75;;;;;;;;;;5111421;28;20385;-42
2023/02/15 07:24:54;;;;;;;9.85;6.53;;;;;;;;;;5111966;28;20019;-42
2023/02/15 07:27:20;;;;;;;11.63;6.65;;;;;;;;;;5112480;28;20579;-41
2023/02/15 07:29:46;;;;;;;8.95;6.15;;;;;;;;;;5113098;28;20035;-42
2023/02/15 07:32:12;;;;;;;9.75;6.22;;;;;;;;;;5112783;28;20393;-42
2023/02/15 07:34:38;;;;;;;10.32;6.13;;;;;;;;;;5112354;28;20503;-42
2023/02/15 07:37:04;;;;;;;9.85;6.03;;;;;;;;;;5112093;28;20098;-40
2023/02/15 07:39:30;;;;;;;11.02;6.85;;;;;;;;;;5111903;28;20023;-41
2023/02/15 07:41:56;;;;;;;9.05;6.22;;;;;;;;;;5111744;28;20023;-41
2023/02/15 07:44:22;;;;;;;11.32;6.90;;;;;;;;;;5111317;28;20137;-37
2023/02/15 07:46:48;;;;;;;8.70;6.00;;;;;;;;;;5111772;28;20028;-39
2023/02/15 07:49:15;;;;;;;10.30;6.82;;;;;;;;;;5110786;28;20111;-40
2023/02/15 07:51:41;;;;;;;10.15;6.18;;;;;;;;;;5111066;28;20055;-40
2023/02/15 07:54:07;;;;;;;9.52;6.35;;;;;;;;;;5111268;28;20102;-37
2023/02/15 07:56:33;;;;;;;11.02;6.28;;;;;;;;;;5110934;28;20381;-38
2023/02/15 07:59:02;;;;;;;10.30;6.50;;;;;;;;;;5111485;28;20039;-38
2023/02/15 08:01:33;;;;;;;11.02;5.57;;;;;;;;;;5110491;28;20028;-41
2023/02/15 08:03:59;;;;;;;10.38;6.05;;;;;;;;;;5111812;28;20461;-41
2023/02/15 08:06:26;;;;;;;10.25;6.10;;;;;;;;;;5111201;28;20169;-38
2023/02/15 08:08:53;;;;;;;13.02;6.22;;;;;;;;;;5111766;28;20023;-42
2023/02/15 08:11:28;;;;;;;8.88;5.78;;;;;;;;;;5111898;28;20030;-37
2023/02/15 08:13:59;;;;;;;12.02;5.80;;;;;;;;;;5111642;28;20016;-42
2023/02/15 08:16:31;;;;;;;9.38;6.10;;;;;;;;;;5114753;28;20401;-42
2023/02/15 08:18:57;;;;;;;9.88;5.85;;;;;;;;;;5115022;28;20053;-42
2023/02/15 08:21:25;;;;;;;8.82;5.55;;;;;;;;;;5115091;28;20027;-42
2023/02/15 08:23:51;;;;;;;8.93;5.40;;;;;;;;;;5115588;28;20031;-42
2023/02/15 08:26:17;;;;;;;16.52;9.27;;;;;;;;;;5114250;28;20387;-41
2023/02/15 08:28:44;;;;;;;16.52;9.77;;;;;;;;;;5115065;28;20091;-42
2023/02/15 08:31:11;;;;;;;15.23;9.38;;;;;;;;;;5114664;28;20023;-40
2023/02/15 08:33:38;;;;;;;15.43;9.80;;;;;;;;;;5114778;28;20394;-38
2023/02/15 08:36:09;;;;;;;16.88;9.20;;;;;;;;;;5114498;28;20056;-37
2023/02/15 08:38:35;;;;;;;14.55;9.00;;;;;;;;;;5115033;28;20028;-37
2023/02/15 08:41:20;;;;;;;15.35;8.90;;;;;;;;;;5114826;28;20027;-41
2023/02/15 08:43:46;;;;;;;;;;;;;;;;;;5114626;28;20043;-41
2023/02/15 08:46:13;;;;;;;18.92;8.40;;;;;;;;;;5113921;28;19961;-40
2023/02/15 08:48:40;;;;;;;15.73;9.23;;;;;;;;;;5114455;28;20099;-41
2023/02/15 08:51:11;;;;;;;12.45;8.00;;;;;;;;;;5114702;28;20025;-42
2023/02/15 08:53:37;;;;;;;13.75;8.30;;;;;;;;;;5114239;28;20213;-42
2023/02/15 08:56:03;;;;;;;11.38;7.88;;;;;;;;;;5114894;28;20027;-40
2023/02/15 08:58:30;;;;;;;13.07;7.85;;;;;;;;;;5115340;28;20035;-39
2023/02/15 09:00:57;;;;;;;14.95;7.90;;;;;;;;;;5114083;28;20242;-40
2023/02/15 09:03:23;;;;;;;12.93;8.38;;;;;;;;;;5113930;28;20028;-41
2023/02/15 09:05:49;;;;;;;14.65;7.78;;;;;;;;;;5113813;28;20020;-42
2023/02/15 09:08:15;;;;;;;12.07;7.50;;;;;;;;;;5114938;28;20019;-41
2023/02/15 09:10:42;;;;;;;11.57;7.30;;;;;;;;;;5112975;28;20027;-38
2023/02/15 09:13:08;;;;;;;13.10;7.32;;;;;;;;;;5114133;28;20024;-38
2023/02/15 09:15:34;;;;;;;10.75;6.85;;;;;;;;;;5113850;28;20034;-35
2023/02/15 09:18:04;;;;;;;12.05;7.43;;;;;;;;;;5113445;28;20067;-35
2023/02/15 09:20:30;;;;;;;11.63;6.70;;;;;;;;;;5113570;27;20073;-34
2023/02/15 09:22:56;;;;;;;12.00;7.35;;;;;;;;;;5113582;28;20031;-31
2023/02/15 09:25:22;;;;;;;10.95;7.07;;;;;;;;;;5112185;28;20055;-32
2023/02/15 09:27:48;;;;;;;10.65;6.75;;;;;;;;;;5113941;28;20016;-34
2023/02/15 09:30:14;;;;;;;9.43;6.35;;;;;;;;;;5113376;27;20023;-34
2023/02/15 09:32:40;;;;;;;10.13;6.32;;;;;;;;;;5113662;28;20070;-37
2023/02/15 09:35:06;;;;;;;11.93;6.38;;;;;;;;;;5113570;28;20031;-32
2023/02/15 09:37:32;;;;;;;10.05;6.57;;;;;;;;;;5114058;28;20485;-32
2023/02/15 09:39:58;;;;;;;11.02;6.60;;;;;;;;;;5114168;28;20188;-32
2023/02/15 09:42:36;;;;;;;9.73;6.57;;;;;;;;;;5114223;28;20076;-32
2023/02/15 09:45:06;;;;;;;11.38;6.18;;;;;;;;;;5113072;28;20051;-31
2023/02/15 09:47:51;;;;;;;9.02;6.25;;;;;;;;;;5113696;28;20020;-34
2023/02/15 09:50:41;;;;;;;8.73;5.65;;;;;;;;;;5112956;28;20020;-31
2023/02/15 09:53:13;;;;;;;9.57;5.93;;;;;;;;;;5093928;28;20507;-34
2023/02/15 09:55:58;;;;;;;9.25;5.60;;;;;;;;;;5113724;28;20042;-40
2023/02/15 09:58:42;;;;;;;9.13;6.10;;;;;;;;;;5113440;28;20024;-41
2023/02/15 10:01:11;;;;;;;8.38;5.38;;;;;;;;;;5112987;28;20046;-41
2023/02/15 10:03:40;;;;;;;9.85;5.82;;;;;;;;;;5112729;28;20020;-41
2023/02/15 10:06:27;;;;;;;9.60;5.60;;;;;;;;;;5112366;28;20493;-41
2023/02/15 10:09:17;;;;;;;8.73;5.38;;;;;;;;;;5112836;28;20393;-40
2023/02/15 10:11:53;;;;;;;8.60;5.03;;;;;;;;;;5112893;28;20027;-42
2023/02/15 10:14:28;;;;;;;7.18;5.20;;;;;;;;;;5112799;28;20027;-42
2023/02/15 10:17:03;;;;;;;8.27;5.45;;;;;;;;;;5113352;28;20023;-41
2023/02/15 10:19:32;;;;;;;9.00;5.57;;;;;;;;;;5112378;28;20032;-40
2023/02/15 10:21:58;;;;;;;7.00;5.20;;;;;;;;;;5112570;28;20122;-41
2023/02/15 10:24:33;;;;;;;8.20;5.22;;;;;;;;;;5113099;28;20524;-42
2023/02/15 10:27:08;;;;;;;8.15;5.63;;;;;;;;;;5112815;28;20032;-42
2023/02/15 10:29:38;;;;;;;8.18;5.15;;;;;;;;;;5112348;28;20028;-39
2023/02/15 10:32:04;;;;;;;9.43;5.50;;;;;;;;;;5112068;27;20042;-40
2023/02/15 10:34:42;;;;;;;8.38;5.35;;;;;;;;;;5112215;28;20068;-42
2023/02/15 10:37:24;;;;;;;7.05;5.25;;;;;;;;;;5112150;28;20481;-42
2023/02/15 10:40:08;;;;;;;8.07;4.80;;;;;;;;;;5112538;28;20015;-40
2023/02/15 10:42:52;;;;;;;8.60;5.25;;;;;;;;;;5112268;28;20500;-39
2023/02/15 10:45:32;;;;;;;7.30;4.75;;;;;;;;;;5112794;28;20047;-41
2023/02/15 10:48:16;;;;;;;6.97;4.90;;;;;;;;;;5112287;28;20503;-42
2023/02/15 10:50:47;;;;;;;7.18;4.93;;;;;;;;;;5111836;28;20027;-42
2023/02/15 10:53:13;;;;;;;8.00;4.97;;;;;;;;;;5111794;28;20088;-38
2023/02/15 10:55:55;;;;;;;10.98;5.82;;;;;;;;;;5112564;28;20114;-37
2023/02/15 10:58:36;;;;;;;10.57;5.22;;;;;;;;;;5112074;28;20027;-40
2023/02/15 11:01:19;;;;;;;8.07;4.78;;;;;;;;;;5112644;28;20118;-42
2023/02/15 11:04:04;;;;;;;8.05;4.80;;;;;;;;;;5112062;28;20019;-42
2023/02/15 11:06:31;;;;;;;8.00;4.55;;;;;;;;;;5111930;28;20041;-39
2023/02/15 11:09:00;;;;;;;9.35;5.30;;;;;;;;;;5112131;28;20477;-41
2023/02/15 11:11:42;;;;;;;8.02;4.40;;;;;;;;;;5112297;28;20027;-40
2023/02/15 11:14:16;;;;;;;6.55;4.10;;;;;;;;;;5112651;28;20219;-37
2023/02/15 11:16:45;;;;;;;7.75;4.05;;;;;;;;;;5110323;28;20047;-40
2023/02/15 11:19:20;;;;;;;7.45;4.13;;;;;;;;;;5110366;28;20401;-42
2023/02/15 11:21:49;;;;;;;7.80;4.30;;;;;;;;;;5111510;28;20052;-37
2023/02/15 11:24:20;;;;;;;6.72;4.15;;;;;;;;;;5112298;28;20049;-41
2023/02/15 11:26:56;;;;;;;12.48;4.20;;;;;;;;;;5111792;28;20454;-32
2023/02/15 11:29:28;;;;;;;6.65;4.35;;;;;;;;;;5111930;28;20020;-31
2023/02/15 11:31:55;;;;;;;7.32;3.40;;;;;;;;;;5112119;28;20022;-31
2023/02/15 11:34:39;;;;;;;5.72;3.47;;;;;;;;;;5111950;28;20023;-33
2023/02/15 11:37:11;;;;;;;6.68;3.42;;;;;;;;;;5111735;28;20106;-36
2023/02/15 11:39:37;;;;;;;5.55;3.65;;;;;;;;;;5110244;28;20031;-32
2023/02/15 11:42:07;;;;;;;6.40;3.90;;;;;;;;;;5111456;28;20027;-33
2023/02/15 11:44:36;;;;;;;6.25;4.00;;;;;;;;;;5111870;28;20038;-31
2023/02/15 11:47:02;;;;;;;6.00;3.47;;;;;;;;;;5110869;28;20461;-31
2023/02/15 11:49:32;;;;;;;5.22;3.45;;;;;;;;;;5112154;28;20054;-40
2023/02/15 11:52:00;;;;;;;4.32;3.17;;;;;;;;;;5115838;28;20046;-38
2023/02/15 11:54:35;;;;;;;7.28;3.58;;;;;;;;;;5115629;28;20447;-37
2023/02/15 11:57:19;;;;;;;6.32;3.20;;;;;;;;;;5114057;28;20038;-40
2023/02/15 11:59:59;;;;;;;5.50;3.38;;;;;;;;;;5115514;28;20489;-41
2023/02/15 12:02:27;;;;;;;6.43;3.72;;;;;;;;;;5114158;28;20122;-40
2023/02/15 12:04:56;;;;;;;5.35;3.13;;;;;;;;;;5115471;28;20019;-40
2023/02/15 12:07:31;;;;;;;5.15;3.25;;;;;;;;;;5114959;27;20032;-40
2023/02/15 12:09:57;;;;;;;4.93;3.25;;;;;;;;;;5113970;28;20389;-37
2023/02/15 12:12:25;;;;;;;7.28;3.42;;;;;;;;;;5115390;28;20015;-41
2023/02/15 12:14:56;;;;;;;5.28;3.22;;;;;;;;;;5115125;28;20027;-41
2023/02/15 12:17:23;;;;;;;4.82;3.00;;;;;;;;;;5114889;27;20034;-32
2023/02/15 12:19:52;;;;;;;5.95;3.08;;;;;;;;;;5115043;28;20034;-31
2023/02/15 12:22:26;;;;;;;5.40;3.25;;;;;;;;;;5114874;28;20107;-33
2023/02/15 12:24:54;;;;;;;5.18;3.47;;;;;;;;;;5115163;28;20053;-40
2023/02/15 12:27:22;;;;;;;7.07;3.15;;;;;;;;;;5114664;28;20024;-42
2023/02/15 12:29:57;;;;;;;5.53;3.00;;;;;;;;;;5114498;28;20051;-40
2023/02/15 12:32:25;;;;;;;4.97;3.08;;;;;;;;;;5114875;28;20024;-36
2023/02/15 12:34:52;;;;;;;4.28;2.90;;;;;;;;;;5115273;28;20019;-42
2023/02/15 12:37:31;;;;;;;5.28;3.10;;;;;;;;;;5115065;28;20031;-42
2023/02/15 12:40:01;;;;;;;3.92;2.63;;;;;;;;;;5115044;28;20020;-41
2023/02/15 12:42:29;;;;;;;6.30;3.28;;;;;;;;;;5114388;28;20031;-38
2023/02/15 12:44:57;;;;;;;3.95;2.92;;;;;;;;;;5114812;28;20037;-32
2023/02/15 12:47:23;;;;;;;4.30;2.72;;;;;;;;;;5114295;28;20488;-33
2023/02/15 12:50:05;;;;;;;4.22;2.95;;;;;;;;;;5114797;28;20030;-34
2023/02/15 12:52:31;;;;;;;5.35;2.80;;;;;;;;;;5114695;28;20020;-35
2023/02/15 12:55:10;;;;;;;5.03;2.70;;;;;;;;;;5114259;28;20020;-33
2023/02/15 12:57:37;;;;;;;4.32;2.85;;;;;;;;;;5114366;28;20031;-32
2023/02/15 13:00:27;;;;;;;4.68;2.67;;;;;;;;;;5112658;28;20027;-31
2023/02/15 13:02:55;;;;;;;4.25;2.60;;;;;;;;;;5108796;27;20489;-34
2023/02/15 13:05:41;;;;;;;4.68;3.00;;;;;;;;;;5113827;27;20107;-32
2023/02/15 13:08:27;;;;;;;4.70;2.53;;;;;;;;;;5112613;28;20427;-31
2023/02/15 13:10:53;;;;;;;4.93;2.78;;;;;;;;;;5113793;28;20439;-32
2023/02/15 13:13:22;;;;;;;4.25;2.53;;;;;;;;;;5113789;28;20470;-34
2023/02/15 13:15:50;;;;;;;4.32;2.25;;;;;;;;;;5113721;28;20174;-41
2023/02/15 13:18:29;;;;;;;3.63;2.67;;;;;;;;;;5113974;28;20031;-31
2023/02/15 13:20:55;;;;;;;5.32;2.50;;;;;;;;;;5113921;28;20034;-35
2023/02/15 13:23:29;;;;;;;5.72;2.47;;;;;;;;;;5113826;28;20066;-34
2023/02/15 13:25:56;;;;;;;4.75;2.72;;;;;;;;;;5113779;28;20031;-31
2023/02/15 13:28:25;;;;;;;3.35;2.35;;;;;;;;;;5113745;28;20042;-33
2023/02/15 13:30:52;;;;;;;4.07;2.50;;;;;;;;;;5113584;28;20103;-35
2023/02/15 13:33:26;;;;;;;3.47;2.25;;;;;;;;;;5113640;28;20085;-35
2023/02/15 13:36:11;;;;;;;6.38;2.42;;;;;;;;;;5113494;28;20488;-33
2023/02/15 13:38:47;;;;;;;4.07;2.53;;;;;;;;;;5113732;28;20039;-32
2023/02/15 13:41:16;;;;;;;3.47;2.42;;;;;;;;;;5113863;28;20027;-32
2023/02/15 13:43:48;;;;;;;3.83;2.40;;;;;;;;;;5113934;28;20060;-36
2023/02/15 13:46:14;;;;;;;4.13;2.50;;;;;;;;;;5112884;28;20102;-40
2023/02/15 13:48:40;;;;;;;3.92;2.30;;;;;;;;;;5113327;28;20058;-41
2023/02/15 13:51:06;;;;;;;6.05;2.53;;;;;;;;;;5113226;28;20026;-41
2023/02/15 13:54:02;;;;;;;3.25;2.00;;;;;;;;;;5113213;27;20424;-38
2023/02/15 13:56:51;;;;;;;6.20;2.80;;;;;;;;;;5074929;28;20037;-42
2023/02/15 13:59:25;;;;;;;6.53;2.28;;;;;;;;;;5093114;28;20059;-40
2023/02/15 14:02:10;;;;;;;3.78;2.30;;;;;;;;;;5113023;27;20019;-40
2023/02/15 14:04:42;;;;;;;3.50;2.08;;;;;;;;;;5112939;28;20051;-31
2023/02/15 14:07:17;;;;;;;3.00;2.30;;;;;;;;;;5112787;28;20063;-34
2023/02/15 14:09:52;;;;;;;4.50;2.20;;;;;;;;;;5113085;28;20059;-35
2023/02/15 14:12:30;;;;;;;3.08;2.30;;;;;;;;;;5112109;28;20112;-32
2023/02/15 14:14:56;;;;;;;3.03;2.17;;;;;;;;;;5113036;27;20102;-32
2023/02/15 14:17:40;;;;;;;4.50;2.75;;;;;;;;;;5112871;28;20085;-31
2023/02/15 14:20:20;;;;;;;4.10;2.28;;;;;;;;;;5112405;28;20664;-33
2023/02/15 14:22:51;;;;;;;4.63;2.60;;;;;;;;;;5112514;28;20031;-31
2023/02/15 14:25:29;;;;;;;4.07;2.20;;;;;;;;;;5112909;28;20392;-31
2023/02/15 14:28:13;;;;;;;3.78;2.40;;;;;;;;;;5112620;28;20020;-31
2023/02/15 14:30:40;;;;;;;3.70;2.20;;;;;;;;;;5110996;28;20141;-37
2023/02/15 14:33:24;;;;;;;3.92;2.22;;;;;;;;;;5112461;28;20103;-31
2023/02/15 14:35:51;;;;;;;3.75;2.53;;;;;;;;;;5112536;28;20031;-31
2023/02/15 14:38:26;;;;;;;3.35;2.13;;;;;;;;;;5112286;28;20396;-32
2023/02/15 14:41:00;;;;;;;3.55;2.40;;;;;;;;;;5112404;28;20563;-42
2023/02/15 14:43:26;;;;;;;;;;;;;;;;;;5112937;28;20030;-38
2023/02/15 14:46:08;;;;;;;3.35;2.05;;;;;;;;;;5112009;28;19908;-38
2023/02/15 14:48:39;;;;;;;3.13;2.40;;;;;;;;;;5112451;28;20024;-43
2023/02/15 14:51:05;;;;;;;4.00;2.08;;;;;;;;;;5110881;28;20060;-39
2023/02/15 14:53:31;;;;;;;3.30;2.30;;;;;;;;;;5112493;28;20118;-39
2023/02/15 14:56:27;;;;;;;4.75;2.17;;;;;;;;;;5112253;28;20023;-41
2023/02/15 14:58:52;;;;;;;4.70;2.13;;;;;;;;;;5103023;28;20055;-39
2023/02/15 15:01:29;;;;;;;3.35;2.10;;;;;;;;;;5112165;28;20027;-39
2023/02/15 15:03:57;;;;;;;3.47;2.20;;;;;;;;;;5112005;28;20457;-38
2023/02/15 15:06:28;;;;;;;3.00;2.03;;;;;;;;;;5110174;28;20111;-40
2023/02/15 15:08:59;;;;;;;3.67;2.30;;;;;;;;;;5111901;28;20023;-41
2023/02/15 15:11:28;;;;;;;2.92;2.17;;;;;;;;;;5111985;28;20038;-41
2023/02/15 15:14:01;;;;;;;5.30;2.47;;;;;;;;;;5111849;28;20020;-43
2023/02/15 15:16:36;;;;;;;3.50;2.25;;;;;;;;;;5110492;28;20032;-42